Time;durP1;ratioP1;P1;durP2;ratioP2;P2;SDS_P1;SDS_P2;PMS_P1;PMS_P2;Temp;Humidity;BMP_temperature;BMP_pressure;BME280_temperature;BME280_humidity;BME280_pressure;Samples;Min_cycle;Max_cycle;Signal;HPM_P1;HPM_P2
2022/04/10 00:01:41;;;;;;;0.87;0.87;;;5.40;99.90;;;;;;4139928;28;20317;-54
2022/04/10 00:03:42;;;;;;;1.23;0.90;;;5.30;99.90;;;;;;4140460;28;20062;-60
2022/04/10 00:05:43;;;;;;;1.13;0.97;;;5.30;99.90;;;;;;4140529;28;20313;-53
2022/04/10 00:07:44;;;;;;;1.23;1.13;;;5.30;99.90;;;;;;4139560;28;21137;-56
2022/04/10 00:09:46;;;;;;;1.50;1.00;;;5.20;99.90;;;;;;4140763;28;20268;-61
2022/04/10 00:11:47;;;;;;;1.40;1.23;;;5.30;99.90;;;;;;4139536;28;20325;-60
2022/04/10 00:13:48;;;;;;;3.70;1.00;;;5.30;99.90;;;;;;4141534;28;20314;-57
2022/04/10 00:15:49;;;;;;;1.63;1.30;;;5.30;99.90;;;;;;4138038;28;20275;-61
2022/04/10 00:17:50;;;;;;;1.87;1.40;;;5.30;99.90;;;;;;4141317;28;20744;-55
2022/04/10 00:19:51;;;;;;;1.90;1.23;;;5.30;99.90;;;;;;4139513;28;20287;-55
2022/04/10 00:21:53;;;;;;;1.83;1.10;;;5.30;99.90;;;;;;4140966;28;20699;-56
2022/04/10 00:23:54;;;;;;;1.73;1.40;;;5.30;99.90;;;;;;4139421;28;20279;-56
2022/04/10 00:25:55;;;;;;;0.97;0.93;;;5.30;99.90;;;;;;4141031;28;20345;-65
2022/04/10 00:27:56;;;;;;;3.60;1.43;;;5.30;99.90;;;;;;4154317;28;20325;-55
2022/04/10 00:29:57;;;;;;;2.23;1.00;;;5.30;99.90;;;;;;4141002;28;20639;-59
2022/04/10 00:31:59;;;;;;;2.77;1.40;;;5.20;99.90;;;;;;4139157;28;20275;-56
2022/04/10 00:34:01;;;;;;;1.30;1.20;;;5.30;99.90;;;;;;4140535;28;20092;-59
2022/04/10 00:36:03;;;;;;;2.43;1.50;;;5.30;99.90;;;;;;4140503;28;20313;-54
2022/04/10 00:38:06;;;;;;;3.37;1.67;;;5.30;99.90;;;;;;4142461;28;20325;-59
2022/04/10 00:40:09;;;;;;;5.00;2.60;;;5.30;99.90;;;;;;4141808;28;20275;-54
2022/04/10 00:42:10;;;;;;;2.87;1.70;;;5.20;99.90;;;;;;4142179;28;20034;-49
2022/04/10 00:44:11;;;;;;;2.13;1.57;;;5.20;99.90;;;;;;4143721;28;20336;-55
2022/04/10 00:46:12;;;;;;;4.07;1.90;;;5.20;99.90;;;;;;4141829;28;20276;-56
2022/04/10 00:48:14;;;;;;;1.23;1.10;;;5.20;99.90;;;;;;4143793;28;20255;-56
2022/04/10 00:50:16;;;;;;;2.17;1.07;;;5.20;99.90;;;;;;4142118;28;20268;-57
2022/04/10 00:52:19;;;;;;;1.23;1.10;;;5.20;99.90;;;;;;4143615;28;20743;-57
2022/04/10 00:54:30;;;;;;;1.60;1.50;;;5.20;99.90;;;;;;4141713;28;20753;-57
2022/04/10 00:56:31;;;;;;;1.60;1.45;;;5.20;99.90;;;;;;4142748;28;20858;-57
2022/04/10 00:58:33;;;;;;;1.87;1.13;;;5.10;99.90;;;;;;4142029;28;20080;-55
2022/04/10 01:00:34;;;;;;;2.40;1.47;;;5.10;99.90;;;;;;4142405;28;20675;-57
2022/04/10 01:02:37;;;;;;;1.53;1.43;;;5.10;99.90;;;;;;4141784;28;20287;-57
2022/04/10 01:04:38;;;;;;;1.97;1.60;;;5.10;99.90;;;;;;4143557;28;20283;-62
2022/04/10 01:06:40;;;;;;;2.00;1.40;;;5.10;99.90;;;;;;4142160;28;20291;-56
2022/04/10 01:08:42;;;;;;;2.20;1.77;;;5.10;99.90;;;;;;4143036;28;20275;-54
2022/04/10 01:10:43;;;;;;;1.73;1.60;;;5.10;99.90;;;;;;4143001;28;21229;-63
2022/04/10 01:12:44;;;;;;;2.07;1.50;;;5.10;99.90;;;;;;4142152;28;20293;-57
2022/04/10 01:14:46;;;;;;;1.30;1.20;;;5.10;99.90;;;;;;4142577;28;20283;-55
2022/04/10 01:16:47;;;;;;;1.00;0.90;;;5.00;99.90;;;;;;4141950;28;20291;-57
2022/04/10 01:18:50;;;;;;;2.10;1.90;;;5.00;99.90;;;;;;4143188;28;20306;-58
2022/04/10 01:20:52;;;;;;;1.20;1.10;;;5.00;99.90;;;;;;4141361;28;20271;-55
2022/04/10 01:22:54;;;;;;;1.93;1.50;;;4.90;99.90;;;;;;4143024;28;20759;-61
2022/04/10 01:24:55;;;;;;;1.67;1.20;;;4.90;99.90;;;;;;4141452;28;20335;-53
2022/04/10 01:26:56;;;;;;;2.27;1.57;;;4.90;99.90;;;;;;4141372;28;20263;-57
2022/04/10 01:29:12;;;;;;;1.57;1.47;;;4.90;99.90;;;;;;4141780;28;20329;-56
2022/04/10 01:31:13;;;;;;;1.40;1.30;;;4.80;99.90;;;;;;4142845;28;20267;-55
2022/04/10 01:33:15;;;;;;;1.83;1.60;;;4.90;99.90;;;;;;4141146;28;20349;-52
2022/04/10 01:35:18;;;;;;;2.83;1.93;;;4.80;99.90;;;;;;4143713;28;20267;-63
2022/04/10 01:37:21;;;;;;;1.60;1.47;;;4.80;99.90;;;;;;4141860;28;20291;-56
2022/04/10 01:39:22;;;;;;;2.07;1.90;;;4.80;99.90;;;;;;4143321;28;20271;-57
2022/04/10 01:41:25;;;;;;;2.77;1.70;;;4.80;99.90;;;;;;4141381;28;20314;-59
2022/04/10 01:43:26;;;;;;;2.97;1.77;;;4.80;99.90;;;;;;4141349;28;21176;-53
2022/04/10 01:45:28;;;;;;;1.77;1.67;;;4.80;99.90;;;;;;4141761;28;20325;-51
2022/04/10 01:47:29;;;;;;;1.90;1.67;;;4.80;99.90;;;;;;4141709;28;20321;-53
2022/04/10 01:49:30;;;;;;;1.87;1.70;;;4.80;99.90;;;;;;4142427;28;20267;-56
2022/04/10 01:51:31;;;;;;;2.13;1.47;;;4.80;99.90;;;;;;4141765;28;20822;-62
2022/04/10 01:53:33;;;;;;;2.00;1.57;;;4.80;99.90;;;;;;4142942;28;20321;-58
2022/04/10 01:55:34;;;;;;;1.80;1.67;;;4.80;99.90;;;;;;4140775;28;21048;-55
2022/04/10 01:57:35;;;;;;;2.40;1.67;;;4.80;99.90;;;;;;4142653;28;20353;-54
2022/04/10 01:59:37;;;;;;;2.13;1.90;;;4.80;99.90;;;;;;4141158;28;20271;-55
2022/04/10 02:01:39;;;;;;;3.10;1.70;;;4.70;99.90;;;;;;4142341;28;20268;-56
2022/04/10 02:03:41;;;;;;;1.87;1.77;;;4.80;99.90;;;;;;4141336;28;20299;-55
2022/04/10 02:05:42;;;;;;;1.87;1.60;;;4.80;99.90;;;;;;4142867;28;20353;-63
2022/04/10 02:07:46;;;;;;;2.60;1.77;;;4.80;99.90;;;;;;4141006;28;20791;-53
2022/04/10 02:09:47;;;;;;;2.87;1.80;;;4.80;99.90;;;;;;4141982;28;20279;-56
2022/04/10 02:11:49;;;;;;;1.80;1.70;;;4.80;99.90;;;;;;4141126;28;20341;-55
2022/04/10 02:13:50;;;;;;;2.00;1.80;;;4.80;99.90;;;;;;4156475;28;20283;-65
2022/04/10 02:15:52;;;;;;;1.77;1.63;;;4.80;99.90;;;;;;4140764;28;20294;-61
2022/04/10 02:17:53;;;;;;;3.43;1.80;;;4.70;99.90;;;;;;4139807;28;20291;-64
2022/04/10 02:19:54;;;;;;;2.00;1.47;;;4.70;99.90;;;;;;4125602;28;20314;-55
2022/04/10 02:21:57;;;;;;;2.30;1.63;;;4.80;99.90;;;;;;4125317;28;20342;-57
2022/04/10 02:23:58;;;;;;;3.20;1.53;;;4.80;99.90;;;;;;4125756;28;20288;-52
2022/04/10 02:25:59;;;;;;;1.80;1.60;;;4.80;99.90;;;;;;4124757;28;20326;-58
2022/04/10 02:28:01;;;;;;;1.50;1.40;;;4.70;99.90;;;;;;4125965;28;20276;-55
2022/04/10 02:30:03;;;;;;;3.70;1.67;;;4.80;99.90;;;;;;4124689;28;20676;-54
2022/04/10 02:32:04;;;;;;;1.73;1.53;;;4.80;99.90;;;;;;4126013;28;20268;-56
2022/04/10 02:34:06;;;;;;;1.50;1.40;;;4.80;99.90;;;;;;4137409;28;20326;-51
2022/04/10 02:36:07;;;;;;;2.00;1.33;;;4.70;99.90;;;;;;4142408;28;20781;-62
2022/04/10 02:38:08;;;;;;;2.13;1.77;;;4.80;99.90;;;;;;4140280;28;21082;-50
2022/04/10 02:40:10;;;;;;;2.87;1.70;;;4.70;99.90;;;;;;4142079;28;20291;-54
2022/04/10 02:42:11;;;;;;;1.80;1.50;;;4.70;99.90;;;;;;4155358;28;20286;-58
2022/04/10 02:44:13;;;;;;;1.77;1.67;;;4.70;99.90;;;;;;4141649;28;20275;-58
2022/04/10 02:46:14;;;;;;;1.90;1.70;;;4.60;99.90;;;;;;4140685;28;20688;-56
2022/04/10 02:48:15;;;;;;;1.90;1.57;;;4.60;99.90;;;;;;4141391;28;20263;-59
2022/04/10 02:50:16;;;;;;;1.50;1.40;;;4.60;99.90;;;;;;4141191;28;20689;-54
2022/04/10 02:52:18;;;;;;;2.00;1.53;;;4.60;99.90;;;;;;4140785;28;21198;-63
2022/04/10 02:54:19;;;;;;;4.33;2.43;;;4.50;99.90;;;;;;4141384;28;20337;-53
2022/04/10 02:56:20;;;;;;;1.57;1.47;;;4.50;99.90;;;;;;4140398;28;20259;-63
2022/04/10 02:58:21;;;;;;;3.07;1.83;;;4.50;99.90;;;;;;4141109;28;20334;-53
2022/04/10 03:00:22;;;;;;;3.30;2.00;;;4.50;99.90;;;;;;4139525;28;20280;-53
2022/04/10 03:02:25;;;;;;;2.27;1.87;;;4.50;99.90;;;;;;4141953;28;20275;-56
2022/04/10 03:04:26;;;;;;;2.77;1.80;;;4.40;99.90;;;;;;4139851;28;20295;-54
2022/04/10 03:06:27;;;;;;;2.20;1.73;;;4.50;99.90;;;;;;4141612;28;20271;-56
2022/04/10 03:08:28;;;;;;;3.57;2.10;;;4.50;99.90;;;;;;4140140;28;20809;-54
2022/04/10 03:10:29;;;;;;;2.87;2.50;;;4.40;99.90;;;;;;4141766;28;20267;-57
2022/04/10 03:12:31;;;;;;;4.10;2.27;;;4.40;99.90;;;;;;4139566;28;20342;-55
2022/04/10 03:14:32;;;;;;;2.90;2.00;;;4.40;99.90;;;;;;4141326;28;20283;-52
2022/04/10 03:16:33;;;;;;;2.20;1.93;;;4.40;99.90;;;;;;4140378;28;20322;-52
2022/04/10 03:18:34;;;;;;;3.20;2.27;;;4.40;99.90;;;;;;4139228;28;20263;-61
2022/04/10 03:20:35;;;;;;;3.97;2.43;;;4.40;99.90;;;;;;4140729;28;20263;-55
2022/04/10 03:22:36;;;;;;;3.90;2.37;;;4.40;99.90;;;;;;4139264;28;20345;-57
2022/04/10 03:24:38;;;;;;;2.50;2.30;;;4.30;99.90;;;;;;4141052;28;20805;-54
2022/04/10 03:26:39;;;;;;;3.53;2.70;;;4.30;99.90;;;;;;4140084;28;20334;-55
2022/04/10 03:28:40;;;;;;;2.83;2.33;;;4.30;99.90;;;;;;4141562;28;20287;-60
2022/04/10 03:30:41;;;;;;;3.43;2.73;;;4.30;99.90;;;;;;4139914;28;20287;-57
2022/04/10 03:32:42;;;;;;;3.30;3.00;;;4.20;99.90;;;;;;4141869;28;20610;-60
2022/04/10 03:34:43;;;;;;;6.13;2.70;;;4.20;99.90;;;;;;4140186;28;20341;-57
2022/04/10 03:36:45;;;;;;;4.00;3.07;;;4.20;99.90;;;;;;4141418;28;20284;-65
2022/04/10 03:38:46;;;;;;;4.90;3.57;;;4.20;99.90;;;;;;4139363;28;20329;-56
2022/04/10 03:40:48;;;;;;;6.40;3.50;;;4.10;99.90;;;;;;4141130;28;20271;-55
2022/04/10 03:42:49;;;;;;;4.07;3.10;;;4.10;99.90;;;;;;4140015;28;20310;-61
2022/04/10 03:44:50;;;;;;;5.40;3.33;;;4.10;99.90;;;;;;4140826;28;20322;-55
2022/04/10 03:46:51;;;;;;;5.40;3.93;;;4.00;99.90;;;;;;4139750;28;21072;-55
2022/04/10 03:48:53;;;;;;;5.00;3.73;;;4.00;99.90;;;;;;4140785;28;20663;-54
2022/04/10 03:50:54;;;;;;;4.93;3.63;;;4.00;99.90;;;;;;4140157;28;20240;-51
2022/04/10 03:52:55;;;;;;;5.70;3.63;;;3.90;99.90;;;;;;4140536;28;20330;-55
2022/04/10 03:54:56;;;;;;;6.13;4.27;;;3.90;99.90;;;;;;4141123;28;21732;-56
2022/04/10 03:56:57;;;;;;;6.63;4.47;;;3.90;99.90;;;;;;4139980;28;20759;-55
2022/04/10 03:58:59;;;;;;;4.73;3.90;;;3.90;99.90;;;;;;4140702;28;20283;-52
2022/04/10 04:01:00;;;;;;;4.23;3.47;;;3.90;99.90;;;;;;4139318;28;20833;-58
2022/04/10 04:03:01;;;;;;;5.53;3.70;;;3.80;99.90;;;;;;4141615;28;20322;-54
2022/04/10 04:05:05;;;;;;;6.47;4.00;;;3.80;99.90;;;;;;4139738;28;20333;-58
2022/04/10 04:07:06;;;;;;;5.27;4.27;;;3.80;99.90;;;;;;4141138;28;20321;-55
2022/04/10 04:09:07;;;;;;;8.33;4.90;;;3.70;99.90;;;;;;4139998;28;20334;-54
2022/04/10 04:11:10;;;;;;;7.97;4.37;;;3.70;99.90;;;;;;4142351;28;20271;-55
2022/04/10 04:13:11;;;;;;;8.57;4.70;;;3.70;99.90;;;;;;4142437;28;20691;-58
2022/04/10 04:15:12;;;;;;;7.97;4.40;;;3.70;99.90;;;;;;4143613;28;20271;-55
2022/04/10 04:17:13;;;;;;;5.87;4.67;;;3.60;99.90;;;;;;4143208;28;20349;-59
2022/04/10 04:19:15;;;;;;;8.77;4.47;;;3.60;99.90;;;;;;4144371;28;20264;-51
2022/04/10 04:21:16;;;;;;;9.20;5.03;;;3.50;99.90;;;;;;4142798;28;20259;-61
2022/04/10 04:23:18;;;;;;;7.27;5.17;;;3.50;99.90;;;;;;4143118;28;20767;-52
2022/04/10 04:25:19;;;;;;;6.20;5.37;;;3.40;99.90;;;;;;4143050;28;21339;-59
2022/04/10 04:27:20;;;;;;;7.50;5.20;;;3.40;99.90;;;;;;4143151;28;20279;-59
2022/04/10 04:29:21;;;;;;;6.43;4.77;;;3.30;99.90;;;;;;4143956;28;20321;-51
2022/04/10 04:31:23;;;;;;;7.17;6.00;;;3.30;99.90;;;;;;4142570;28;20255;-60
2022/04/10 04:33:24;;;;;;;8.33;5.60;;;3.30;99.90;;;;;;4144400;28;20263;-56
2022/04/10 04:35:25;;;;;;;9.87;6.00;;;3.30;99.90;;;;;;4142461;28;20271;-56
2022/04/10 04:37:26;;;;;;;7.07;5.03;;;3.20;99.90;;;;;;4143345;28;20675;-62
2022/04/10 04:39:27;;;;;;;8.60;5.13;;;3.20;99.90;;;;;;4142055;28;20276;-54
2022/04/10 04:41:28;;;;;;;7.30;5.10;;;3.10;99.90;;;;;;4143745;28;20279;-55
2022/04/10 04:43:29;;;;;;;11.30;5.73;;;3.00;99.90;;;;;;4142362;28;20761;-57
2022/04/10 04:45:31;;;;;;;9.00;4.90;;;2.90;99.90;;;;;;4144077;28;20667;-57
2022/04/10 04:47:32;;;;;;;8.43;5.30;;;2.90;99.90;;;;;;4142317;28;20271;-58
2022/04/10 04:49:33;;;;;;;6.40;4.70;;;2.90;99.90;;;;;;4142985;28;20283;-54
2022/04/10 04:51:36;;;;;;;6.60;4.73;;;2.80;99.90;;;;;;4142450;28;20255;-52
2022/04/10 04:53:37;;;;;;;5.60;4.13;;;2.70;99.90;;;;;;4143160;28;20935;-57
2022/04/10 04:55:38;;;;;;;6.60;4.70;;;2.70;99.90;;;;;;4141942;28;20271;-53
2022/04/10 04:57:39;;;;;;;6.50;4.70;;;2.60;99.90;;;;;;4142572;28;20329;-57
2022/04/10 04:59:40;;;;;;;7.97;4.73;;;2.50;99.90;;;;;;4143051;28;20272;-58
2022/04/10 05:01:42;;;;;;;6.60;4.60;;;2.50;99.90;;;;;;4141840;28;20260;-61
2022/04/10 05:03:43;;;;;;;6.47;4.60;;;2.40;99.90;;;;;;4143003;28;21560;-66
2022/04/10 05:05:44;;;;;;;4.60;4.00;;;2.40;99.90;;;;;;4142205;28;20743;-60
2022/04/10 05:07:45;;;;;;;7.60;4.43;;;2.30;99.90;;;;;;4142446;28;20279;-56
2022/04/10 05:09:46;;;;;;;5.70;4.30;;;2.30;99.90;;;;;;4142026;28;20268;-57
2022/04/10 05:11:48;;;;;;;6.53;4.87;;;2.30;99.90;;;;;;4143469;28;20826;-53
2022/04/10 05:13:49;;;;;;;7.97;5.13;;;2.30;99.90;;;;;;4141909;28;20276;-56
2022/04/10 05:15:50;;;;;;;9.13;4.83;;;2.20;99.90;;;;;;4142806;28;21057;-59
2022/04/10 05:17:51;;;;;;;6.27;4.90;;;2.20;99.90;;;;;;4141869;28;20365;-56
2022/04/10 05:19:53;;;;;;;11.40;8.03;;;2.20;99.90;;;;;;4143062;28;20345;-63
2022/04/10 05:21:54;;;;;;;14.60;10.10;;;2.20;99.90;;;;;;4141855;28;20318;-56
2022/04/10 05:23:55;;;;;;;13.90;9.77;;;2.20;99.90;;;;;;4142036;28;20264;-60
2022/04/10 05:25:57;;;;;;;15.10;9.73;;;2.30;99.90;;;;;;4142573;28;20306;-56
2022/04/10 05:27:58;;;;;;;17.77;11.07;;;2.30;99.90;;;;;;4141745;28;20338;-53
2022/04/10 05:29:59;;;;;;;22.27;13.67;;;2.30;99.90;;;;;;4142252;28;20338;-55
2022/04/10 05:32:00;;;;;;;25.60;14.53;;;2.30;99.90;;;;;;4140747;28;20346;-61
2022/04/10 05:34:02;;;;;;;19.87;12.43;;;2.30;99.90;;;;;;4143187;28;20275;-56
2022/04/10 05:36:04;;;;;;;20.23;11.97;;;2.30;99.90;;;;;;4141210;28;20764;-61
2022/04/10 05:38:05;;;;;;;13.47;9.53;;;2.30;99.90;;;;;;4142352;28;20707;-56
2022/04/10 05:40:07;;;;;;;11.60;7.87;;;2.40;99.90;;;;;;4140115;28;20707;-55
2022/04/10 05:42:08;;;;;;;10.30;7.17;;;2.30;99.90;;;;;;4142427;28;20329;-55
2022/04/10 05:44:09;;;;;;;9.20;6.50;;;2.30;99.90;;;;;;4141945;28;20653;-56
2022/04/10 05:46:11;;;;;;;8.13;6.40;;;2.20;99.90;;;;;;4142387;28;20287;-56
2022/04/10 05:48:12;;;;;;;9.13;6.47;;;2.10;99.90;;;;;;4141238;28;20597;-52
2022/04/10 05:50:14;;;;;;;9.50;7.07;;;2.10;99.90;;;;;;4142229;28;20291;-58
2022/04/10 05:52:15;;;;;;;9.10;6.93;;;2.10;99.90;;;;;;4141928;28;20310;-55
2022/04/10 05:54:17;;;;;;;7.40;5.70;;;2.10;99.90;;;;;;4141683;28;20256;-53
2022/04/10 05:56:18;;;;;;;10.17;6.03;;;2.10;99.90;;;;;;4141227;28;20317;-54
2022/04/10 05:58:19;;;;;;;8.30;6.23;;;2.10;99.90;;;;;;4141750;28;20302;-55
2022/04/10 06:00:21;;;;;;;10.53;6.50;;;2.10;99.90;;;;;;4141528;28;20259;-55
2022/04/10 06:02:22;;;;;;;7.93;6.23;;;2.10;99.90;;;;;;4140452;28;20345;-59
2022/04/10 06:04:23;;;;;;;9.17;5.97;;;2.10;99.90;;;;;;4142893;28;20813;-55
2022/04/10 06:06:24;;;;;;;9.60;6.17;;;2.10;99.90;;;;;;4157092;28;20266;-56
2022/04/10 06:08:25;;;;;;;8.70;5.87;;;2.10;99.90;;;;;;4158289;28;20348;-57
2022/04/10 06:10:27;;;;;;;8.90;5.70;;;2.10;99.90;;;;;;4143517;28;20325;-57
2022/04/10 06:12:28;;;;;;;10.77;5.97;;;2.10;99.90;;;;;;4141637;28;20310;-56
2022/04/10 06:14:30;;;;;;;8.17;6.03;;;2.10;99.90;;;;;;4140320;28;20751;-56
2022/04/10 06:16:31;;;;;;;9.03;6.03;;;2.10;99.90;;;;;;4141714;28;20346;-55
2022/04/10 06:18:32;;;;;;;7.87;5.80;;;2.00;99.90;;;;;;4140275;28;20342;-57
2022/04/10 06:20:33;;;;;;;9.03;6.43;;;2.10;99.90;;;;;;4141666;28;20256;-59
2022/04/10 06:22:34;;;;;;;8.30;5.37;;;2.10;99.90;;;;;;4140362;28;20255;-67
2022/04/10 06:24:36;;;;;;;10.50;7.00;;;2.10;99.90;;;;;;4141635;28;20271;-59
2022/04/10 06:26:37;;;;;;;10.37;6.70;;;2.10;99.90;;;;;;4140953;28;20321;-66
2022/04/10 06:28:38;;;;;;;9.23;5.63;;;2.10;99.90;;;;;;4141053;28;20264;-57
2022/04/10 06:30:39;;;;;;;8.13;6.03;;;2.20;99.90;;;;;;4140783;28;20313;-58
2022/04/10 06:32:40;;;;;;;8.10;5.40;;;2.20;99.90;;;;;;4140733;28;20302;-56
2022/04/10 06:34:41;;;;;;;6.43;5.37;;;2.20;99.90;;;;;;4141368;28;20635;-59
2022/04/10 06:36:42;;;;;;;7.70;5.53;;;2.10;99.90;;;;;;4140833;28;20322;-55
2022/04/10 06:38:44;;;;;;;7.00;5.37;;;2.20;99.90;;;;;;4141747;28;20333;-57
2022/04/10 06:40:47;;;;;;;10.47;7.30;;;2.20;99.90;;;;;;4140877;28;20341;-65
2022/04/10 06:42:48;;;;;;;10.23;6.70;;;2.20;99.90;;;;;;4141823;28;20263;-61
2022/04/10 06:44:49;;;;;;;10.03;5.83;;;2.20;99.90;;;;;;4139075;28;20276;-55
2022/04/10 06:46:50;;;;;;;8.53;6.27;;;2.20;99.90;;;;;;4141967;28;20272;-57
2022/04/10 06:48:51;;;;;;;9.87;6.53;;;2.30;99.90;;;;;;4139991;28;20334;-55
2022/04/10 06:50:52;;;;;;;12.23;8.00;;;2.30;99.90;;;;;;4141451;28;20279;-59
2022/04/10 06:52:54;;;;;;;8.13;5.57;;;2.30;99.90;;;;;;4139672;28;20326;-61
2022/04/10 06:54:55;;;;;;;8.77;5.23;;;2.30;99.90;;;;;;4141011;28;20287;-54
2022/04/10 06:56:56;;;;;;;6.40;4.30;;;2.30;99.90;;;;;;4138919;28;20271;-56
2022/04/10 06:58:57;;;;;;;7.73;4.73;;;2.30;99.90;;;;;;4140040;28;20295;-54
2022/04/10 07:00:58;;;;;;;7.73;5.23;;;2.20;99.90;;;;;;4139906;28;20263;-54
2022/04/10 07:03:01;;;;;;;10.13;5.87;;;2.20;99.90;;;;;;4139554;28;20337;-55
2022/04/10 07:05:02;;;;;;;9.53;5.97;;;2.20;99.90;;;;;;4141386;28;20353;-63
2022/04/10 07:07:03;;;;;;;10.13;6.20;;;2.20;99.90;;;;;;4139861;28;20677;-60
2022/04/10 07:09:05;;;;;;;8.83;5.90;;;2.20;99.90;;;;;;4141126;28;20671;-52
2022/04/10 07:11:06;;;;;;;8.40;5.80;;;2.10;99.90;;;;;;4140134;28;20283;-54
2022/04/10 07:13:07;;;;;;;7.17;4.80;;;2.20;99.90;;;;;;4141332;28;20329;-59
2022/04/10 07:15:08;;;;;;;5.93;4.57;;;2.10;99.90;;;;;;4139613;28;20275;-59
2022/04/10 07:17:09;;;;;;;8.23;6.07;;;2.10;99.90;;;;;;4140804;28;20333;-56
2022/04/10 07:19:10;;;;;;;6.70;4.37;;;2.10;99.90;;;;;;4139673;28;20291;-58
2022/04/10 07:21:12;;;;;;;11.37;7.40;;;2.00;99.90;;;;;;4141222;28;20275;-51
2022/04/10 07:25:32;;;;;;;7.23;4.77;;;2.10;99.90;;;;;;4141196;28;20271;-54
2022/04/10 07:27:34;;;;;;;11.20;6.80;;;2.10;99.90;;;;;;4139759;28;20275;-57
2022/04/10 07:29:35;;;;;;;7.27;4.90;;;2.10;99.90;;;;;;4141036;28;21109;-54
2022/04/10 07:31:36;;;;;;;7.07;4.30;;;2.10;99.90;;;;;;4140180;28;20259;-53
2022/04/10 07:33:37;;;;;;;5.27;3.97;;;2.00;99.90;;;;;;4140091;28;20267;-51
2022/04/10 07:35:43;;;;;;;5.80;4.07;;;2.00;99.90;;;;;;4140911;28;20838;-58
2022/04/10 07:37:44;;;;;;;13.43;6.63;;;2.00;99.90;;;;;;4154780;28;20861;-57
2022/04/10 07:39:45;;;;;;;10.40;6.60;;;2.00;99.90;;;;;;4140386;28;20284;-55
2022/04/10 07:41:46;;;;;;;9.10;6.07;;;2.00;99.90;;;;;;4139241;28;20357;-55
2022/04/10 07:43:47;;;;;;;7.67;5.43;;;2.10;99.90;;;;;;4139185;28;20271;-56
2022/04/10 07:48:08;;;;;;;6.13;4.37;;;2.10;99.90;;;;;;4144803;28;20263;-53
2022/04/10 07:50:10;;;;;;;5.50;4.17;;;2.10;99.90;;;;;;4143206;28;20686;-50
2022/04/10 07:52:11;;;;;;;4.73;3.63;;;2.20;99.90;;;;;;4144622;28;20294;-57
2022/04/10 07:54:12;;;;;;;8.30;4.23;;;2.20;99.90;;;;;;4143218;28;20275;-57
2022/04/10 07:56:13;;;;;;;6.90;4.83;;;2.20;99.90;;;;;;4144059;28;20350;-57
2022/04/10 07:58:14;;;;;;;5.10;3.97;;;2.20;99.90;;;;;;4142584;28;20295;-55
2022/04/10 08:00:17;;;;;;;4.37;3.03;;;2.20;99.90;;;;;;4144429;28;20275;-57
2022/04/10 08:02:18;;;;;;;3.23;2.70;;;2.30;99.90;;;;;;4142292;28;20299;-52
2022/04/10 08:04:19;;;;;;;4.83;3.37;;;2.20;99.90;;;;;;4144025;28;20303;-52
2022/04/10 08:06:20;;;;;;;5.40;3.80;;;2.30;99.90;;;;;;4142561;28;20294;-59
2022/04/10 08:08:21;;;;;;;4.63;3.37;;;2.40;99.90;;;;;;4142227;28;20690;-64
2022/04/10 08:10:22;;;;;;;6.03;3.90;;;2.40;99.90;;;;;;4143083;28;20317;-60
2022/04/10 08:12:25;;;;;;;6.03;4.73;;;2.40;99.90;;;;;;4143101;28;20337;-62
2022/04/10 08:14:26;;;;;;;10.27;5.93;;;2.50;99.90;;;;;;4143691;28;20321;-66
2022/04/10 08:16:27;;;;;;;6.30;3.93;;;2.60;99.90;;;;;;4142272;28;20290;-57
2022/04/10 08:18:29;;;;;;;5.30;4.17;;;2.60;99.90;;;;;;4143252;28;20349;-59
2022/04/10 08:20:30;;;;;;;5.17;3.47;;;2.70;99.90;;;;;;4143491;28;20397;-54
2022/04/10 08:22:32;;;;;;;4.80;2.93;;;2.80;99.90;;;;;;4146342;28;20354;-63
2022/04/10 08:24:33;;;;;;;8.17;3.87;;;2.80;99.90;;;;;;4141122;28;20341;-60
2022/04/10 08:26:35;;;;;;;4.90;3.30;;;2.90;99.90;;;;;;4148133;28;20329;-54
2022/04/10 08:28:36;;;;;;;2.70;1.53;;;2.90;99.90;;;;;;4149091;28;20694;-63
2022/04/10 08:30:39;;;;;;;4.00;2.47;;;3.00;99.90;;;;;;4146310;28;20329;-57
2022/04/10 08:32:42;;;;;;;4.93;2.93;;;3.00;99.90;;;;;;4142071;28;20349;-54
2022/04/10 08:34:43;;;;;;;2.43;1.77;;;3.00;99.90;;;;;;4152412;28;20271;-52
2022/04/10 08:36:44;;;;;;;2.93;1.77;;;3.10;99.90;;;;;;4142097;28;20283;-58
2022/04/10 08:38:47;;;;;;;3.67;2.10;;;3.20;99.90;;;;;;4143137;28;20353;-54
2022/04/10 08:40:52;;;;;;;4.40;2.93;;;3.20;99.90;;;;;;4142043;28;20267;-56
2022/04/10 08:42:54;;;;;;;6.80;3.27;;;3.30;99.90;;;;;;4130874;28;20267;-53
2022/04/10 08:44:56;;;;;;;1.80;1.20;;;3.30;99.90;;;;;;4141926;28;20276;-57
2022/04/10 08:46:59;;;;;;;1.57;1.30;;;3.30;99.90;;;;;;4141562;28;20299;-53
2022/04/10 08:49:00;;;;;;;1.70;1.30;;;3.30;99.90;;;;;;4151452;28;20263;-64
2022/04/10 08:51:02;;;;;;;2.57;1.30;;;3.30;99.90;;;;;;4157580;28;20274;-54
2022/04/10 08:53:04;;;;;;;5.53;2.07;;;3.30;99.90;;;;;;4151338;28;20303;-58
2022/04/10 08:55:06;;;;;;;4.23;1.93;;;3.20;99.90;;;;;;4142085;28;20691;-57
2022/04/10 08:57:08;;;;;;;3.57;1.50;;;3.20;99.90;;;;;;4142520;28;20283;-56
2022/04/10 08:59:09;;;;;;;1.60;1.30;;;3.20;99.90;;;;;;4141707;28;20860;-67
2022/04/10 09:01:13;;;;;;;3.07;2.50;;;3.20;99.90;;;;;;4142988;28;20279;-57
2022/04/10 09:03:14;;;;;;;2.43;1.67;;;3.30;99.90;;;;;;4141084;28;20333;-58
2022/04/10 09:05:19;;;;;;;2.07;1.20;;;3.30;99.90;;;;;;4151059;28;20275;-57
2022/04/10 09:07:21;;;;;;;1.70;1.10;;;3.40;99.90;;;;;;4135644;28;20645;-57
2022/04/10 09:09:22;;;;;;;1.87;0.87;;;3.50;99.90;;;;;;4142034;28;20325;-54
2022/04/10 09:11:29;;;;;;;2.47;1.27;;;3.50;99.90;;;;;;4141291;28;20288;-60
2022/04/10 09:13:37;;;;;;;2.10;1.90;;;3.60;99.90;;;;;;4142489;28;20333;-54
2022/04/10 09:15:39;;;;;;;2.97;1.50;;;3.60;99.90;;;;;;4141184;28;20313;-61
2022/04/10 09:17:53;;;;;;;2.40;1.50;;;3.60;99.90;;;;;;4141823;28;20263;-65
2022/04/10 09:19:57;;;;;;;0.80;0.53;;;3.50;99.90;;;;;;4140942;28;20299;-57
2022/04/10 09:22:20;;;;;;;1.87;0.87;;;3.50;99.90;;;;;;4141390;28;20349;-54
2022/04/10 09:24:21;;;;;;;7.10;4.37;;;3.50;99.90;;;;;;4125548;28;20306;-55
2022/04/10 09:26:23;;;;;;;1.77;1.43;;;3.50;99.90;;;;;;4127813;28;20383;-53
2022/04/10 09:28:46;;;;;;;1.67;1.20;;;3.50;99.90;;;;;;4141363;28;21159;-57
2022/04/10 09:30:47;;;;;;;1.23;1.00;;;3.60;99.90;;;;;;4142453;28;20264;-65
2022/04/10 09:32:51;;;;;;;1.77;1.20;;;3.50;99.90;;;;;;4140588;28;20369;-58
2022/04/10 09:34:56;;;;;;;2.93;1.10;;;3.50;99.90;;;;;;4141354;28;20333;-57
2022/04/10 09:37:03;;;;;;;2.10;1.20;;;3.50;99.90;;;;;;4140933;28;20357;-61
2022/04/10 09:39:06;;;;;;;4.87;1.80;;;3.50;99.90;;;;;;4141271;28;20291;-64
2022/04/10 09:41:13;;;;;;;2.37;0.77;;;3.50;99.90;;;;;;4140834;28;20271;-59
2022/04/10 09:43:14;;;;;;;2.37;1.10;;;3.60;99.90;;;;;;4137752;28;20275;-66
2022/04/10 09:45:33;;;;;;;1.53;1.30;;;3.60;99.90;;;;;;4138177;28;20268;-57
2022/04/10 09:47:34;;;;;;;10.67;5.53;;;3.60;99.90;;;;;;4136303;28;20295;-64
2022/04/10 09:49:40;;;;;;;4.93;2.57;;;3.60;99.90;;;;;;4136179;28;20295;-59
2022/04/10 09:52:15;;;;;;;11.27;4.60;;;3.70;99.90;;;;;;4135506;28;20785;-62
2022/04/10 09:54:16;;;;;;;2.47;1.90;;;3.70;99.90;;;;;;4138216;28;20264;-61
2022/04/10 09:56:18;;;;;;;4.30;2.40;;;3.80;99.90;;;;;;4136034;28;20346;-56
2022/04/10 09:58:20;;;;;;;3.37;1.70;;;3.90;99.90;;;;;;4135488;28;21380;-63
2022/04/10 10:00:21;;;;;;;2.20;1.50;;;3.90;99.90;;;;;;4134853;28;20793;-58
2022/04/10 10:02:23;;;;;;;2.40;1.90;;;3.90;99.90;;;;;;4136549;28;20271;-56
2022/04/10 10:04:25;;;;;;;2.63;1.83;;;4.00;99.90;;;;;;4134264;28;20890;-54
2022/04/10 10:06:26;;;;;;;2.63;1.60;;;4.00;99.90;;;;;;4137059;28;20337;-57
2022/04/10 10:08:28;;;;;;;3.47;2.20;;;4.00;99.90;;;;;;4134462;28;20337;-56
2022/04/10 10:10:31;;;;;;;2.60;1.87;;;4.10;99.90;;;;;;4138206;28;20671;-54
2022/04/10 10:12:34;;;;;;;4.00;1.70;;;4.10;99.90;;;;;;4140807;28;20739;-57
2022/04/10 10:14:36;;;;;;;1.93;1.20;;;4.20;99.90;;;;;;4139310;28;20333;-63
2022/04/10 10:16:39;;;;;;;0.90;0.80;;;4.20;99.90;;;;;;4138737;28;20818;-58
2022/04/10 10:18:41;;;;;;;1.53;0.90;;;4.20;99.90;;;;;;4136507;28;20295;-54
2022/04/10 10:20:42;;;;;;;3.20;1.70;;;4.20;99.90;;;;;;4134754;28;20291;-56
2022/04/10 10:22:44;;;;;;;3.23;1.33;;;4.20;99.90;;;;;;4136788;28;20283;-50
2022/04/10 10:24:58;;;;;;;4.10;1.70;;;4.20;99.90;;;;;;4136079;28;20291;-57
2022/04/10 10:27:08;;;;;;;2.10;1.20;;;4.20;99.90;;;;;;4139537;28;20280;-55
2022/04/10 10:29:47;;;;;;;5.53;3.20;;;4.30;99.90;;;;;;4136457;28;20999;-56
2022/04/10 10:32:12;;;;;;;3.67;2.13;;;4.40;99.90;;;;;;4136135;28;20100;-50
2022/04/10 10:34:14;;;;;;;3.23;1.40;;;4.50;99.90;;;;;;4134874;28;20318;-55
2022/04/10 10:36:22;;;;;;;3.27;1.40;;;4.50;99.90;;;;;;4136890;28;20287;-56
2022/04/10 10:38:30;;;;;;;1.97;1.13;;;4.60;99.90;;;;;;4134492;28;20416;-57
2022/04/10 10:40:31;;;;;;;0.97;0.73;;;4.60;99.90;;;;;;4138084;28;20345;-52
2022/04/10 10:42:40;;;;;;;1.10;1.00;;;4.70;99.90;;;;;;4139142;28;20327;-51
2022/04/10 10:44:46;;;;;;;2.30;1.33;;;4.90;99.90;;;;;;4137397;28;20275;-53
2022/04/10 10:47:03;;;;;;;2.57;1.10;;;5.10;99.90;;;;;;4135477;28;20358;-54
2022/04/10 10:49:16;;;;;;;46.43;22.97;;;5.20;99.90;;;;;;4135633;28;20813;-57